createdAt,value
2019-01-22T00:00:46.628Z,145824.81
2019-01-22T00:01:53.021Z,145784.81
2019-01-22T00:02:59.410Z,145774.81
2019-01-22T00:04:05.132Z,145769.83
2019-01-22T00:05:11.548Z,145794.83
2019-01-22T00:06:17.907Z,145831.05
2019-01-22T00:07:23.931Z,145844.83
2019-01-22T00:08:30.265Z,145836.70
2019-01-22T00:09:36.625Z,145827.31
2019-01-22T00:10:43.021Z,145827.31
2019-01-22T00:11:49.413Z,145769.83
2019-01-22T00:12:55.820Z,145808.56
2019-01-22T00:14:02.222Z,145804.16
2019-01-22T00:15:08.937Z,145786.08
2019-01-22T00:16:15.384Z,145769.83
2019-01-22T00:17:21.916Z,145764.80
2019-01-22T00:18:28.381Z,145775.44
2019-01-22T00:19:34.754Z,145761.66
2019-01-22T00:20:41.795Z,145763.55
2019-01-22T00:21:48.443Z,145773.55
2019-01-22T00:22:54.865Z,145799.17
2019-01-22T00:24:01.222Z,145809.81
2019-01-22T00:25:06.947Z,145791.06
2019-01-22T00:26:13.310Z,145732.94
2019-01-22T00:27:19.672Z,145696.69
2019-01-22T00:28:26.032Z,145679.19
2019-01-22T00:29:32.076Z,145663.58
2019-01-22T00:30:38.409Z,145687.31
2019-01-22T00:31:44.725Z,145701.72
2019-01-22T00:32:51.073Z,145714.81
2019-01-22T00:33:57.413Z,145711.09
2019-01-22T00:35:03.425Z,145745.41
2019-01-22T00:36:09.939Z,145711.67
2019-01-22T00:37:16.309Z,145676.72
2019-01-22T00:38:22.761Z,145650.48
2019-01-22T00:39:29.175Z,145636.72
2019-01-22T00:40:35.170Z,145613.61
2019-01-22T00:41:41.580Z,145619.27
2019-01-22T00:42:47.227Z,145621.09
2019-01-22T00:43:53.621Z,145629.84
2019-01-22T00:44:59.951Z,145632.36
2019-01-22T00:46:05.989Z,145646.08
2019-01-22T00:47:12.340Z,145644.83
2019-01-22T00:48:18.720Z,145652.38
2019-01-22T00:49:25.091Z,145658.59
2019-01-22T00:50:31.081Z,145663.58
2019-01-22T00:51:37.544Z,145642.36
2019-01-22T00:52:43.940Z,145667.34
2019-01-22T00:53:50.369Z,145653.58
2019-01-22T00:54:56.763Z,145677.94
2019-01-22T00:56:02.806Z,145686.69
2019-01-22T00:57:08.806Z,145696.69
2019-01-22T00:58:15.165Z,145716.06
2019-01-22T00:59:21.550Z,145731.06
2019-01-22T01:00:29.984Z,145718.59
2019-01-22T01:01:36.349Z,145726.70
2019-01-22T01:02:44.329Z,145725.45
2019-01-22T01:03:51.562Z,145724.19
2019-01-22T01:04:57.881Z,145722.31
2019-01-22T01:06:03.614Z,145704.17
2019-01-22T01:07:09.589Z,145707.31
2019-01-22T01:08:15.631Z,145729.17
2019-01-22T01:09:21.999Z,145732.94
2019-01-22T01:10:27.713Z,145747.30
2019-01-22T01:11:34.116Z,145822.92
2019-01-22T01:12:40.463Z,145869.20
2019-01-22T01:13:46.858Z,145849.81
2019-01-22T01:14:52.906Z,145817.31
2019-01-22T01:15:58.857Z,145795.41
2019-01-22T01:17:04.504Z,145772.30
2019-01-22T01:18:10.894Z,145762.28
2019-01-22T01:19:17.248Z,145764.17
2019-01-22T01:20:22.925Z,145772.30
2019-01-22T01:21:29.287Z,145807.94
2019-01-22T01:22:35.637Z,145837.28
2019-01-22T01:23:42.936Z,145876.70
2019-01-22T01:24:49.316Z,145906.69
2019-01-22T01:25:55.821Z,145903.59
2019-01-22T01:27:02.155Z,145885.45
2019-01-22T01:28:08.522Z,145838.55
2019-01-22T01:29:14.967Z,145840.42
2019-01-22T01:30:20.635Z,145813.53
2019-01-22T01:31:27.018Z,145770.41
2019-01-22T01:32:33.399Z,145734.20
2019-01-22T01:33:39.823Z,145712.92
2019-01-22T01:34:46.292Z,145749.19
2019-01-22T01:35:52.652Z,145757.94
2019-01-22T01:36:58.987Z,145746.05
2019-01-22T01:38:05.074Z,145743.58
2019-01-22T01:39:11.487Z,145676.72
2019-01-22T01:40:17.185Z,145652.94
2019-01-22T01:41:23.185Z,145653.58
2019-01-22T01:42:29.547Z,145684.84
2019-01-22T01:43:35.943Z,145689.81
2019-01-22T01:44:42.293Z,145706.06
2019-01-22T01:45:48.612Z,145703.55
2019-01-22T01:46:54.960Z,145706.69
2019-01-22T01:48:01.311Z,145712.30
2019-01-22T01:49:07.657Z,145707.95
2019-01-22T01:50:13.351Z,145696.06
2019-01-22T01:51:19.672Z,145692.97
2019-01-22T01:52:26.063Z,145636.08
2019-01-22T01:53:32.450Z,145591.14
2019-01-22T01:54:38.819Z,145510.61
2019-01-22T01:55:44.787Z,145489.36
2019-01-22T01:56:51.169Z,145491.87
2019-01-22T01:57:57.562Z,145524.97
2019-01-22T01:59:03.992Z,145532.44
2019-01-22T02:00:13.071Z,145559.94
2019-01-22T02:01:19.455Z,145609.89
2019-01-22T02:02:25.837Z,145604.88
2019-01-22T02:03:32.209Z,145643.63
2019-01-22T02:04:38.212Z,145656.09
2019-01-22T02:05:44.590Z,145622.36
2019-01-22T02:06:51.010Z,145609.27
2019-01-22T02:07:57.106Z,145604.88
2019-01-22T02:09:03.247Z,145644.83
2019-01-22T02:10:09.328Z,145622.98
2019-01-22T02:11:15.681Z,145596.75
2019-01-22T02:12:21.313Z,145584.28
2019-01-22T02:13:27.630Z,145571.14
2019-01-22T02:14:33.340Z,145564.28
2019-01-22T02:15:49.824Z,145612.98
2019-01-22T02:16:57.792Z,145611.09
2019-01-22T02:18:06.023Z,145606.75
2019-01-22T02:19:11.763Z,145615.50
2019-01-22T02:20:21.934Z,145600.52
2019-01-22T02:21:40.259Z,145600.52
2019-01-22T02:22:54.443Z,145608.64
2019-01-22T02:24:06.217Z,145610.52
2019-01-22T02:25:28.300Z,145597.37
2019-01-22T02:26:34.865Z,145586.13
2019-01-22T02:27:58.310Z,145571.14
2019-01-22T02:29:11.465Z,145576.16
2019-01-22T02:30:22.739Z,145572.41
2019-01-22T02:31:32.690Z,145569.25
2019-01-22T02:32:50.331Z,145581.77
2019-01-22T02:33:59.637Z,145589.25
2019-01-22T02:35:09.841Z,145577.42
2019-01-22T02:36:24.132Z,145570.52
2019-01-22T02:37:30.587Z,145573.03
2019-01-22T02:38:44.631Z,145585.53
2019-01-22T02:39:53.762Z,145579.27
2019-01-22T02:40:59.434Z,145546.16
2019-01-22T02:42:06.031Z,145529.94
2019-01-22T02:43:23.515Z,145547.42
2019-01-22T02:44:48.753Z,145539.94
2019-01-22T02:47:35.771Z,145601.16
2019-01-22T02:50:41.856Z,145667.34
2019-01-22T02:52:01.684Z,145676.72
2019-01-22T02:53:12.083Z,145679.19
2019-01-22T02:54:17.760Z,145648.59
2019-01-22T02:55:28.239Z,145631.73
2019-01-22T02:56:48.793Z,145586.75
2019-01-22T02:58:05.976Z,145556.17
2019-01-22T02:59:24.262Z,145516.22
2019-01-22T03:00:37.337Z,145536.80
2019-01-22T03:01:52.953Z,145563.66
2019-01-22T03:03:02.130Z,145565.53
2019-01-22T03:04:21.252Z,145552.45
2019-01-22T03:05:28.313Z,145574.91
2019-01-22T03:06:45.515Z,145506.22
2019-01-22T03:07:52.141Z,145464.41
2019-01-22T03:08:58.445Z,145465.66
2019-01-22T03:11:42.014Z,145461.87
2019-01-22T03:14:30.938Z,145430.69
2019-01-22T03:15:43.134Z,145455.66
2019-01-22T03:18:44.090Z,145480.62
2019-01-22T03:19:52.275Z,145471.25
2019-01-22T03:21:03.848Z,145485.59
2019-01-22T03:22:11.046Z,145528.06
2019-01-22T03:23:20.523Z,145518.09
2019-01-22T03:24:29.947Z,145432.56
2019-01-22T03:25:36.385Z,145448.80
2019-01-22T03:26:59.857Z,145452.52
2019-01-22T03:28:09.084Z,145512.45
2019-01-22T03:29:19.166Z,145514.34
2019-01-22T03:30:31.192Z,145499.36
2019-01-22T03:31:39.195Z,145511.83
2019-01-22T03:34:59.254Z,145435.08
2019-01-22T03:36:10.523Z,145475.66
2019-01-22T03:39:08.031Z,145521.83
2019-01-22T03:40:32.181Z,145470.62
2019-01-22T03:42:00.336Z,145461.87
2019-01-22T03:54:00.225Z,145440.06
2019-01-22T03:55:10.398Z,145420.06
2019-01-22T03:56:31.751Z,145424.47
2019-01-22T03:57:37.598Z,145411.95
2019-01-22T03:58:44.247Z,145410.17
2019-01-22T03:59:50.655Z,145363.34
2019-01-22T04:00:56.494Z,145375.84
2019-01-22T04:02:02.878Z,145367.73
2019-01-22T04:03:09.610Z,145350.88
2019-01-22T04:04:16.064Z,145335.87
2019-01-22T04:05:22.511Z,145301.61
2019-01-22T04:06:28.121Z,145296.59
2019-01-22T04:07:34.196Z,145297.84
2019-01-22T04:08:40.124Z,145289.73
2019-01-22T04:09:45.833Z,145294.08
2019-01-22T04:10:51.577Z,145285.34
2019-01-22T04:11:57.843Z,145310.30
2019-01-22T04:13:03.639Z,145301.61
2019-01-22T04:14:09.767Z,145324.67
2019-01-22T04:15:16.213Z,145319.03
2019-01-22T04:16:22.610Z,145312.17
2019-01-22T04:17:28.605Z,145312.17
2019-01-22T04:18:34.747Z,145291.63
2019-01-22T04:19:41.122Z,145279.13
2019-01-22T04:20:46.840Z,145297.22
2019-01-22T04:21:52.818Z,145295.97
2019-01-22T04:22:59.270Z,145280.38
2019-01-22T04:25:47.076Z,145286.59
2019-01-22T04:27:00.132Z,145281.63
2019-01-22T04:28:16.647Z,145270.38
2019-01-22T04:29:28.153Z,145259.81
2019-01-22T04:30:51.530Z,145259.19
2019-01-22T04:31:58.703Z,145251.72
2019-01-22T04:33:10.930Z,145262.91
2019-01-22T04:36:04.838Z,145265.41
2019-01-22T04:39:14.722Z,145301.61
2019-01-22T04:40:41.534Z,145299.09
2019-01-22T04:41:53.056Z,145284.77
2019-01-22T04:43:00.446Z,145260.39
2019-01-22T04:44:06.123Z,145284.77
2019-01-22T04:45:20.271Z,145287.22
2019-01-22T04:46:30.435Z,145292.88
2019-01-22T04:47:50.681Z,145302.19
2019-01-22T04:49:17.935Z,145321.55
2019-01-22T04:52:18.514Z,145391.44
2019-01-22T04:55:17.555Z,145446.91
2019-01-22T05:08:39.336Z,145363.97
2019-01-22T05:10:04.172Z,145365.22
2019-01-22T05:11:19.477Z,145383.95
2019-01-22T05:27:19.243Z,145388.30
2019-01-22T05:28:29.116Z,145365.22
2019-01-22T05:29:38.739Z,145378.94
2019-01-22T05:30:47.777Z,145402.06
2019-01-22T05:31:55.054Z,145419.44
2019-01-22T05:33:03.611Z,145413.22
2019-01-22T05:34:15.779Z,145444.41
2019-01-22T05:37:19.342Z,145450.06
2019-01-22T05:38:34.907Z,145470.62
2019-01-22T05:39:47.038Z,145463.14
2019-01-22T05:41:24.309Z,145429.44
2019-01-22T05:42:34.725Z,145398.30
2019-01-22T05:45:55.901Z,145363.34
2019-01-22T05:47:16.473Z,145351.52
2019-01-22T05:48:25.605Z,145327.14
2019-01-22T05:49:50.732Z,145261.02
2019-01-22T05:50:57.273Z,145274.78
2019-01-22T05:53:54.951Z,145299.72
2019-01-22T06:05:49.480Z,145327.14
2019-01-22T06:06:58.149Z,145357.73
2019-01-22T06:08:03.839Z,145340.27
2019-01-22T06:09:10.345Z,145345.87
2019-01-22T06:10:31.657Z,145344.61
2019-01-22T06:11:46.017Z,145360.83
2019-01-22T06:14:38.458Z,145321.55
2019-01-22T06:15:55.211Z,145331.53
2019-01-22T06:29:15.279Z,145215.53
2019-01-22T06:31:53.526Z,145210.50
2019-01-22T06:32:59.008Z,145205.53
2019-01-22T06:34:14.604Z,145180.59
2019-01-22T06:35:24.059Z,145176.84
2019-01-22T06:36:45.425Z,145185.56
2019-01-22T06:37:56.725Z,145160.00
2019-01-22T06:39:05.846Z,145160.00
2019-01-22T06:40:27.959Z,145173.75
2019-01-22T06:43:22.566Z,145160.00
2019-01-22T06:56:53.256Z,145221.75
2019-01-22T06:58:03.391Z,145186.19
2019-01-22T07:00:49.357Z,145146.31
2019-01-22T07:02:02.385Z,145143.80
2019-01-22T07:03:11.595Z,145090.22
2019-01-22T07:04:18.623Z,145095.19
2019-01-22T07:05:31.785Z,145101.45
2019-01-22T07:06:53.308Z,145125.75
2019-01-22T07:09:50.861Z,145160.63
2019-01-22T07:11:18.762Z,145144.42
2019-01-22T07:12:26.784Z,145123.88
2019-01-22T07:15:31.486Z,145122.00
2019-01-22T07:17:20.770Z,145110.75
2019-01-22T07:18:32.249Z,145118.86
2019-01-22T07:19:44.467Z,145120.73
2019-01-22T07:20:54.853Z,145128.84
2019-01-22T07:22:00.567Z,145153.16
2019-01-22T07:23:07.928Z,145150.69
2019-01-22T07:24:20.166Z,145176.25
2019-01-22T07:25:40.251Z,145155.66
2019-01-22T07:26:47.571Z,145178.72
2019-01-22T07:27:58.765Z,145191.22
2019-01-22T07:29:07.154Z,145186.19
2019-01-22T07:30:26.155Z,145189.33
2019-01-22T07:31:46.770Z,145241.72
2019-01-22T07:33:15.741Z,145234.25
2019-01-22T07:34:32.924Z,145198.06
2019-01-22T07:35:48.495Z,145232.98
2019-01-22T07:37:03.739Z,145234.88
2019-01-22T07:38:13.658Z,145282.25
2019-01-22T07:39:21.706Z,145259.19
2019-01-22T07:42:14.439Z,145253.53
2019-01-22T07:43:27.522Z,145284.14
2019-01-22T07:44:39.339Z,145274.78
2019-01-22T07:45:47.997Z,145308.47
2019-01-22T07:47:13.489Z,145336.50
2019-01-22T07:48:56.081Z,145351.52
2019-01-22T07:50:10.826Z,145388.30
2019-01-22T07:51:32.164Z,145410.75
2019-01-22T07:52:47.192Z,145395.78
2019-01-22T07:53:52.949Z,145426.97
2019-01-22T07:55:11.316Z,145487.48
2019-01-22T07:56:24.569Z,145507.47
2019-01-22T07:57:50.706Z,145609.27
2019-01-22T07:59:25.493Z,145593.03
2019-01-22T08:00:46.015Z,145659.86
2019-01-22T08:01:59.095Z,145677.94
2019-01-22T08:03:16.235Z,145675.47
2019-01-22T08:04:45.731Z,145662.31
2019-01-22T08:05:51.150Z,145682.95
2019-01-22T08:07:00.455Z,145704.17
2019-01-22T08:08:07.691Z,145694.81
2019-01-22T08:09:31.147Z,145691.70
2019-01-22T08:10:39.548Z,145682.95
2019-01-22T08:11:46.466Z,145709.20
2019-01-22T08:14:37.469Z,145710.47
2019-01-22T08:15:43.873Z,145734.83
2019-01-22T08:16:50.955Z,145766.06
2019-01-22T08:17:59.437Z,145819.83
2019-01-22T08:19:18.635Z,145864.17
2019-01-22T08:20:31.030Z,145806.67
2019-01-22T08:21:38.219Z,145770.41
2019-01-22T08:22:47.466Z,145760.44
2019-01-22T08:25:30.873Z,145836.70
2019-01-22T08:26:44.021Z,145826.06
2019-01-22T08:29:38.530Z,145892.33
2019-01-22T08:30:56.095Z,145939.20
2019-01-22T08:32:08.329Z,145935.47
2019-01-22T08:33:17.501Z,145904.17
2019-01-22T08:36:08.901Z,145886.09
2019-01-22T08:37:20.360Z,145946.06
2019-01-22T08:38:41.434Z,145975.48
2019-01-22T08:40:01.602Z,145972.34
2019-01-22T08:41:13.253Z,145969.25
2019-01-22T08:42:25.467Z,146000.50
2019-01-22T08:43:31.823Z,146026.73
2019-01-22T08:44:38.346Z,146034.86
2019-01-22T08:45:45.009Z,146041.73
2019-01-22T08:46:52.427Z,146064.23
2019-01-22T08:48:03.925Z,146111.19
2019-01-22T08:49:16.377Z,146104.91
2019-01-22T08:50:25.870Z,146117.44
2019-01-22T08:52:48.129Z,146133.08
2019-01-22T08:55:36.084Z,146188.19
2019-01-22T08:56:48.316Z,146235.73
2019-01-22T08:57:59.398Z,146206.92
2019-01-22T08:59:07.577Z,146198.16
2019-01-22T09:00:18.841Z,146221.36
2019-01-22T09:01:26.325Z,146236.38
2019-01-22T09:02:33.553Z,146253.28
2019-01-22T09:05:26.220Z,146244.50
2019-01-22T09:06:43.782Z,146225.72
2019-01-22T09:07:56.867Z,146266.41
2019-01-22T09:09:08.441Z,146334.03
2019-01-22T09:10:42.678Z,146344.06
2019-01-22T09:11:55.097Z,146287.09
2019-01-22T09:13:09.253Z,146258.27
2019-01-22T09:14:15.790Z,146268.92
2019-01-22T09:15:25.788Z,146318.38
2019-01-22T09:16:49.142Z,146335.28
2019-01-22T09:30:30.354Z,146413.59
2019-01-22T09:32:07.353Z,146390.37
2019-01-22T09:33:24.679Z,146398.53
2019-01-22T09:36:20.943Z,146464.97
2019-01-22T09:37:26.625Z,146456.20
2019-01-22T09:38:32.682Z,146470.59
2019-01-22T09:39:39.037Z,146491.25
2019-01-22T09:40:45.042Z,146499.41
2019-01-22T09:41:51.348Z,146473.12
2019-01-22T09:42:57.696Z,146508.17
2019-01-22T09:44:04.039Z,146594.05
2019-01-22T09:45:09.698Z,146580.91
2019-01-22T09:46:15.785Z,146588.42
2019-01-22T09:47:21.404Z,146626.02
2019-01-22T09:48:27.797Z,146612.23
2019-01-22T09:49:35.451Z,146631.06
2019-01-22T09:50:40.651Z,146610.97
2019-01-22T09:51:47.005Z,146641.09
2019-01-22T09:52:53.363Z,146703.14
2019-01-22T09:53:59.352Z,146736.38
2019-01-22T09:55:05.035Z,146693.73
2019-01-22T09:56:10.974Z,146661.77
2019-01-22T09:57:17.332Z,146728.22
2019-01-22T09:58:23.725Z,146720.70
2019-01-22T09:59:30.068Z,146694.36
2019-01-22T10:00:36.107Z,146695.00
2019-01-22T10:01:42.100Z,146740.16
2019-01-22T10:02:48.456Z,146779.03
2019-01-22T10:03:54.778Z,146816.70
2019-01-22T10:05:01.681Z,146832.38
2019-01-22T10:06:07.589Z,146831.75
2019-01-22T10:07:14.024Z,146840.53
2019-01-22T10:08:20.382Z,146832.38
2019-01-22T10:09:26.718Z,146844.27
2019-01-22T10:10:32.488Z,146833.00
2019-01-22T10:11:38.113Z,146873.16
2019-01-22T10:12:44.096Z,146892.00
2019-01-22T10:13:50.523Z,146867.53
2019-01-22T10:14:56.578Z,146897.63
2019-01-22T10:16:02.250Z,146926.52
2019-01-22T10:17:08.741Z,146947.20
2019-01-22T10:18:15.104Z,146959.16
2019-01-22T10:19:21.462Z,146998.69
2019-01-22T10:20:27.845Z,146983.63
2019-01-22T10:21:33.503Z,147028.16
2019-01-22T10:22:39.566Z,146959.78
2019-01-22T10:23:46.904Z,146956.63
2019-01-22T10:24:52.098Z,146903.89
2019-01-22T10:25:58.502Z,146946.56
2019-01-22T10:27:04.482Z,146944.67
2019-01-22T10:28:10.500Z,146989.25
2019-01-22T10:29:16.833Z,146952.83
2019-01-22T10:30:23.263Z,146969.78
2019-01-22T10:31:29.272Z,146965.41
2019-01-22T10:32:35.620Z,146947.20
2019-01-22T10:33:41.966Z,146983.00
2019-01-22T10:34:48.340Z,147007.47
2019-01-22T10:35:54.698Z,147067.13
2019-01-22T10:37:01.484Z,147046.38
2019-01-22T10:38:08.514Z,146963.52
2019-01-22T10:39:17.836Z,146995.53
2019-01-22T10:40:22.518Z,147055.17
2019-01-22T10:41:28.537Z,147092.23
2019-01-22T10:42:34.916Z,147112.94
2019-01-22T10:43:41.233Z,147060.22
2019-01-22T10:44:47.622Z,147066.50
2019-01-22T10:45:54.020Z,147063.33
2019-01-22T10:47:00.368Z,147123.62
2019-01-22T10:48:06.758Z,147121.73
2019-01-22T10:49:12.737Z,147151.28
2019-01-22T10:50:19.100Z,147119.25
2019-01-22T10:51:25.530Z,147156.28
2019-01-22T10:52:31.994Z,147151.91
2019-01-22T10:53:38.334Z,147172.63
2019-01-22T10:54:44.653Z,147173.87
2019-01-22T10:55:51.062Z,147181.41
2019-01-22T10:56:57.440Z,147146.22
2019-01-22T10:58:03.839Z,147164.45
2019-01-22T10:59:09.824Z,147147.48
2019-01-22T11:00:21.281Z,147168.88
2019-01-22T11:01:28.076Z,147114.84
2019-01-22T11:02:34.484Z,147183.31
2019-01-22T11:03:40.509Z,147185.20
2019-01-22T11:04:46.832Z,147223.50
2019-01-22T11:05:53.234Z,147246.75
2019-01-22T11:06:59.600Z,147249.91
2019-01-22T11:08:05.258Z,147256.81
2019-01-22T11:09:11.632Z,147213.44
2019-01-22T11:10:17.963Z,147253.06
2019-01-22T11:11:24.523Z,147263.08
2019-01-22T11:12:31.493Z,147269.41
2019-01-22T11:13:37.867Z,147292.64
2019-01-22T11:14:44.192Z,147257.44
2019-01-22T11:15:50.588Z,147275.67
2019-01-22T11:16:57.033Z,147251.80
2019-01-22T11:18:02.740Z,147241.73
2019-01-22T11:19:08.881Z,147216.61
2019-01-22T11:20:15.415Z,147234.20
2019-01-22T11:21:22.219Z,147266.88
2019-01-22T11:22:28.584Z,147299.53
2019-01-22T11:23:35.339Z,147332.84
2019-01-22T11:24:41.299Z,147342.91
2019-01-22T11:25:47.800Z,147391.31
2019-01-22T11:26:54.156Z,147427.78
2019-01-22T11:28:00.147Z,147412.08
2019-01-22T11:29:06.498Z,147358.00
2019-01-22T11:30:12.187Z,147386.30
2019-01-22T11:31:18.564Z,147392.58
2019-01-22T11:32:24.978Z,147398.84
2019-01-22T11:33:33.402Z,147457.31
2019-01-22T11:34:37.809Z,147502.61
2019-01-22T11:35:44.146Z,147521.50
2019-01-22T11:36:50.486Z,147532.20
2019-01-22T11:37:57.038Z,147452.31
2019-01-22T11:39:02.980Z,147408.28
2019-01-22T11:40:13.148Z,147385.66
2019-01-22T11:41:19.189Z,147422.14
2019-01-22T11:42:26.324Z,147482.47
2019-01-22T11:43:33.130Z,147508.89
2019-01-22T11:44:39.448Z,147508.89
2019-01-22T11:45:45.847Z,147465.48
2019-01-22T11:46:52.221Z,147456.69
2019-01-22T11:47:57.820Z,147488.16
2019-01-22T11:49:03.769Z,147520.86
2019-01-22T11:50:10.301Z,147416.45
2019-01-22T11:51:16.672Z,147469.28
2019-01-22T11:52:22.989Z,147525.23
2019-01-22T11:53:29.363Z,147417.72
2019-01-22T11:54:35.771Z,147378.75
2019-01-22T11:55:42.367Z,147378.12
2019-01-22T11:56:48.420Z,147442.23
2019-01-22T11:57:54.783Z,147498.23
2019-01-22T11:59:01.150Z,147546.66
2019-01-22T12:00:10.222Z,147505.14
2019-01-22T12:01:16.838Z,147411.44
2019-01-22T12:02:23.212Z,147390.67
2019-01-22T12:03:30.243Z,147454.20
2019-01-22T12:04:37.101Z,147476.19
2019-01-22T12:05:43.942Z,147529.03
2019-01-22T12:06:50.324Z,147510.78
2019-01-22T12:07:56.690Z,147539.75
2019-01-22T12:09:02.822Z,147525.87
2019-01-22T12:10:08.422Z,147554.19
2019-01-22T12:11:14.801Z,147568.66
2019-01-22T12:12:21.148Z,147602.63
2019-01-22T12:13:27.434Z,147613.33
2019-01-22T12:14:33.768Z,147561.11
2019-01-22T12:15:39.822Z,147527.14
2019-01-22T12:16:46.193Z,147487.53
2019-01-22T12:17:52.199Z,147502.61
2019-01-22T12:18:58.540Z,147515.80
2019-01-22T12:20:04.205Z,147540.38
2019-01-22T12:21:10.260Z,147504.52
2019-01-22T12:22:16.731Z,147418.34
2019-01-22T12:23:23.119Z,147417.09
2019-01-22T12:24:29.741Z,147444.77
2019-01-22T12:25:35.758Z,147503.25
2019-01-22T12:26:42.097Z,147489.42
2019-01-22T12:27:48.519Z,147480.63
2019-01-22T12:28:54.899Z,147524.61
2019-01-22T12:30:01.281Z,147535.94
2019-01-22T12:31:07.646Z,147525.23
2019-01-22T12:32:13.972Z,147478.09
2019-01-22T12:33:20.388Z,147422.78
2019-01-22T12:34:26.766Z,147444.77
2019-01-22T12:35:32.753Z,147503.88
2019-01-22T12:36:39.110Z,147455.47
2019-01-22T12:37:45.449Z,147523.39
2019-01-22T12:38:51.800Z,147561.11
2019-01-22T12:39:58.172Z,147551.66
2019-01-22T12:41:03.836Z,147498.23
2019-01-22T12:42:10.234Z,147485.00
2019-01-22T12:43:16.627Z,147515.80
2019-01-22T12:44:22.937Z,147478.09
2019-01-22T12:45:29.396Z,147497.59
2019-01-22T12:46:36.468Z,147457.31
2019-01-22T12:47:42.767Z,147441.59
2019-01-22T12:48:49.083Z,147529.67
2019-01-22T12:49:55.424Z,147492.55
2019-01-22T12:51:01.861Z,147439.70
2019-01-22T12:52:08.258Z,147383.13
2019-01-22T12:53:14.220Z,147379.39
2019-01-22T12:54:20.560Z,147425.25
2019-01-22T12:55:26.617Z,147383.13
2019-01-22T12:56:33.003Z,147390.05
2019-01-22T12:57:39.347Z,147408.28
2019-01-22T12:58:45.673Z,147388.83
2019-01-22T12:59:52.025Z,147465.48
2019-01-22T13:00:57.978Z,147460.48
2019-01-22T13:02:03.685Z,147469.92
2019-01-22T13:03:09.367Z,147474.30
2019-01-22T13:04:15.672Z,147515.80
2019-01-22T13:05:34.386Z,147582.53
2019-01-22T13:06:40.427Z,147603.89
2019-01-22T13:07:47.453Z,147500.72
2019-01-22T13:08:54.517Z,147512.69
2019-01-22T13:10:01.175Z,147615.23
2019-01-22T13:11:07.219Z,147713.38
2019-01-22T13:12:13.635Z,147717.77
2019-01-22T13:13:19.984Z,147559.84
2019-01-22T13:14:26.330Z,147460.48
2019-01-22T13:15:32.633Z,147518.97
2019-01-22T13:16:38.997Z,147569.28
2019-01-22T13:17:45.338Z,147666.20
2019-01-22T13:18:51.677Z,147701.41
2019-01-22T13:19:58.030Z,147574.94
2019-01-22T13:21:03.795Z,147506.41
2019-01-22T13:22:10.178Z,147466.75
2019-01-22T13:23:16.464Z,147552.94
2019-01-22T13:24:22.451Z,147606.42
2019-01-22T13:25:28.780Z,147598.25
2019-01-22T13:26:35.171Z,147678.77
2019-01-22T13:27:41.557Z,147799.00
2019-01-22T13:28:47.979Z,147788.91
2019-01-22T13:30:01.122Z,147777.56
2019-01-22T13:31:00.768Z,147867.64
2019-01-22T13:32:07.141Z,147707.73
2019-01-22T13:33:13.473Z,147812.83
2019-01-22T13:34:20.096Z,147748.64
2019-01-22T13:35:26.245Z,147760.56
2019-01-22T13:36:32.551Z,147831.09
2019-01-22T13:37:39.660Z,147880.84
2019-01-22T13:38:46.017Z,147890.30
2019-01-22T13:39:53.304Z,147917.38
2019-01-22T13:40:59.580Z,148021.92
2019-01-22T13:42:05.998Z,147895.31
2019-01-22T13:43:12.396Z,147685.05
2019-01-22T13:44:18.780Z,147664.94
2019-01-22T13:45:27.970Z,147649.20
2019-01-22T13:46:34.296Z,147702.03
2019-01-22T13:47:40.665Z,147723.47
2019-01-22T13:48:47.047Z,147753.66
2019-01-22T13:49:53.363Z,147646.67
2019-01-22T13:51:00.032Z,147659.23
2019-01-22T13:52:06.095Z,147698.28
2019-01-22T13:53:12.494Z,147819.75
2019-01-22T13:54:18.685Z,147822.28
2019-01-22T13:55:26.608Z,147861.30
2019-01-22T13:56:32.971Z,147836.12
2019-01-22T13:57:39.357Z,147815.36
2019-01-22T13:58:45.726Z,147848.73
2019-01-22T13:59:52.084Z,147887.75
2019-01-22T14:00:58.397Z,147952.03
2019-01-22T14:02:04.397Z,147751.17
2019-01-22T14:03:10.432Z,147702.67
2019-01-22T14:04:16.879Z,147703.31
2019-01-22T14:05:23.235Z,147652.97
2019-01-22T14:06:29.547Z,147640.41
2019-01-22T14:07:35.947Z,147635.97
2019-01-22T14:08:42.294Z,147561.73
2019-01-22T14:09:48.622Z,147559.20
2019-01-22T14:10:55.888Z,147554.83
2019-01-22T14:12:02.751Z,147544.75
2019-01-22T14:13:09.059Z,147608.91
2019-01-22T14:14:15.422Z,147661.77
2019-01-22T14:15:22.392Z,147655.50
2019-01-22T14:16:28.732Z,147607.69
2019-01-22T14:17:35.146Z,147578.09
2019-01-22T14:18:41.595Z,147521.50
2019-01-22T14:19:48.026Z,147491.28
2019-01-22T14:20:54.409Z,147511.42
2019-01-22T14:22:01.241Z,147463.64
2019-01-22T14:23:07.288Z,147471.19
2019-01-22T14:24:13.679Z,147473.08
2019-01-22T14:25:20.369Z,147448.52
2019-01-22T14:26:26.762Z,147471.19
2019-01-22T14:27:33.137Z,147467.39
2019-01-22T14:28:39.492Z,147401.37
2019-01-22T14:29:45.507Z,147405.80
2019-01-22T14:30:51.849Z,147386.94
2019-01-22T14:31:58.254Z,147358.00
2019-01-22T14:33:04.072Z,147329.11
2019-01-22T14:34:10.460Z,147347.92
2019-01-22T14:35:16.487Z,147361.16
2019-01-22T14:36:22.859Z,147389.41
2019-01-22T14:37:30.149Z,147369.95
2019-01-22T14:38:36.502Z,147338.53
2019-01-22T14:39:42.840Z,147315.25
2019-01-22T14:40:49.263Z,147313.41
2019-01-22T14:41:55.618Z,147309.61
2019-01-22T14:43:02.095Z,147321.56
2019-01-22T14:44:08.100Z,147339.13
2019-01-22T14:45:13.780Z,147309.61
2019-01-22T14:46:20.177Z,147305.81
2019-01-22T14:47:26.629Z,147287.00
2019-01-22T14:48:33.022Z,147291.37
2019-01-22T14:49:39.429Z,147306.44
2019-01-22T14:50:45.900Z,147290.75
2019-01-22T14:51:51.929Z,147297.02
2019-01-22T14:52:58.354Z,147315.88
2019-01-22T14:54:05.005Z,147292.00
2019-01-22T14:55:11.077Z,147286.36
2019-01-22T14:56:17.433Z,147281.94
2019-01-22T14:57:23.939Z,147280.05
2019-01-22T14:58:30.278Z,147280.67
2019-01-22T14:59:36.651Z,147274.41
2019-01-22T15:00:43.064Z,147258.06
2019-01-22T15:01:49.473Z,147247.37
2019-01-22T15:02:55.201Z,147246.11
2019-01-22T15:04:01.649Z,147243.00
2019-01-22T15:05:07.319Z,147245.53
2019-01-22T15:06:13.840Z,147241.73
2019-01-22T15:07:20.264Z,147231.03
2019-01-22T15:08:26.632Z,147230.41
2019-01-22T15:09:33.068Z,147224.14
2019-01-22T15:10:39.416Z,147233.56
2019-01-22T15:11:45.789Z,147209.06
2019-01-22T15:12:52.139Z,147203.44
2019-01-22T15:13:58.509Z,147202.16
2019-01-22T15:15:04.201Z,147193.37
2019-01-22T15:16:10.542Z,147192.73
2019-01-22T15:17:16.927Z,147186.47
2019-01-22T15:18:23.291Z,147187.09
2019-01-22T15:19:29.699Z,147199.00
2019-01-22T15:20:36.090Z,147221.61
2019-01-22T15:21:42.450Z,147194.63